Flight Track Log - Related Links

Times and Time Zones

All times are in EDT time to prevent confusion due to time zone crossing. See the EGF3676 flight status page for this flight to view local times or setup timezone preferences in your user account.

Time Position Orientation Groundspeed Altitude Reporting Facility
EDT Latitude Longitude Course Direction KTS MPH feet Rate Location/Type
Mon 05:37:14 PM 39.8333 -104.7667 248° West 163 188 7,100  Level Denver TRACON
Mon 05:38:00 PM 39.7624 -104.9320 250° West  Level FlightAware Approximate
Mon 05:38:08 PM 39.8167 -104.8333 252° West 222 255 8,700  Level Denver TRACON
Mon 05:39:00 PM 39.7223 -105.0667 247° West  Level FlightAware Approximate
Mon 05:39:02 PM 39.8000 -104.9000 252° West 270 311 10,100  Level Denver TRACON
Mon 05:40:00 PM 39.6781 -105.1992 247° West  Level FlightAware Approximate
Mon 05:40:02 PM 39.7667 -105.0000 247° West 305 351 12,000  Level Denver TRACON
Mon 05:41:00 PM 39.6395 -105.3343 248° West  Level FlightAware Approximate
Mon 05:41:14 PM 39.7275 -105.1336 249° West 330 380 14,400  Level Denver Center
Mon 05:42:00 PM 39.5978 -105.4698 248° West  Level FlightAware Approximate
Mon 05:42:15 PM 39.6850 -105.2508 245° Southwest 356 410 16,000  Level Denver Center
Mon 05:43:17 PM 39.6400 -105.3758 245° Southwest 378 435 18,300 2,323 Climbing Denver Center
Mon 05:44:19 PM 39.5917 -105.5108 245° Southwest 386 444 20,800 2,323 Climbing Denver Center
Mon 05:45:21 PM 39.5469 -105.6325 245° Southwest 380 437 23,100 1,984 Climbing Denver Center
Mon 05:46:23 PM 39.5117 -105.7569 250° West 364 419 24,900 1,258 Climbing Denver Center
Mon 05:47:25 PM 39.4775 -105.8886 251° West 379 436 25,700 871 Climbing Denver Center
Mon 05:48:27 PM 39.4392 -106.0300 251° West 408 470 26,700 1,113 Climbing Denver Center
Mon 05:49:29 PM 39.3922 -106.1936 250° West 423 487 28,000 1,210 Climbing Denver Center
Mon 05:50:31 PM 39.3531 -106.3333 250° West 432 497 29,200 1,210 Climbing Denver Center
Mon 05:51:33 PM 39.3061 -106.4947 249° West 430 495 30,500 1,210 Climbing Denver Center
Mon 05:52:35 PM 39.2661 -106.6361 250° West 435 501 31,700 1,113 Climbing Denver Center
Mon 05:53:37 PM 39.1992 -106.7869 240° Southwest 443 510 32,800 968 Climbing Denver Center
Mon 05:54:39 PM 39.1247 -106.9064 231° Southwest 446 513 33,700 927 Climbing Denver Center
Mon 05:55:40 PM 39.0503 -107.0242 231° Southwest 443 510 34,700 1,024 Climbing Denver Center
Mon 05:56:42 PM 38.9622 -107.1633 231° Southwest 446 513 35,800 629 Climbing Denver Center
Mon 05:57:44 PM 38.8875 -107.2822 231° Southwest 448 516 36,000 97 Climbing Denver Center
Mon 05:58:46 PM 38.7958 -107.4242 230° Southwest 461 531 36,000  Level Denver Center
Mon 05:59:48 PM 38.7139 -107.5517 231° Southwest 478 550 36,000  Level Denver Center
Mon 06:00:50 PM 38.6192 -107.6972 230° Southwest 477 549 36,000  Level Denver Center
Mon 06:01:52 PM 38.5406 -107.8222 231° Southwest 473 544 36,000 97 Level Denver Center
Mon 06:02:54 PM 38.4469 -107.9664 230° Southwest 470 541 36,200 435 Climbing Denver Center
Mon 06:03:56 PM 38.3653 -108.0914 230° Southwest 475 547 36,900 677 Climbing Denver Center
Mon 06:04:58 PM 38.2850 -108.2131 230° Southwest 471 542 37,600 532 Climbing Denver Center
Mon 06:06:00 PM 38.1917 -108.3572 231° Southwest 470 541 38,000 195 Climbing Denver Center
Mon 06:07:01 PM 38.1106 -108.4800 230° Southwest 473 544 38,000  Level Denver Center
Mon 06:08:03 PM 38.0133 -108.6261 230° Southwest 474 545 38,000  Level Denver Center
Mon 06:09:05 PM 37.9372 -108.7525 233° Southwest 473 544 38,000  Level Denver Center
Mon 06:10:07 PM 37.8747 -108.8869 240° Southwest 467 537 38,000  Level Denver Center
Mon 06:11:09 PM 37.8033 -109.0483 241° Southwest 469 540 38,000  Level Denver Center
Mon 06:12:11 PM 37.7403 -109.1836 240° Southwest 468 539 38,000  Level Denver Center
Mon 06:13:13 PM 37.6681 -109.3450 241° Southwest 474 545 38,000  Level Denver Center
Mon 06:14:14 PM 37.6053 -109.4803 240° Southwest 468 539 38,000  Level Denver Center
Mon 06:15:16 PM 37.5328 -109.6403 240° Southwest 471 542 38,000  Level Denver Center
Mon 06:16:18 PM 37.4694 -109.7764 240° Southwest 470 541 38,000  Level Denver Center
Mon 06:17:20 PM 37.3964 -109.9347 240° Southwest 470 541 38,000  Level Denver Center
Mon 06:18:22 PM 37.3342 -110.0700 240° Southwest 469 540 38,000  Level Denver Center
Mon 06:19:24 PM 37.2683 -110.2103 240° Southwest 469 540 38,000  Level Denver Center
Mon 06:20:25 PM 37.2006 -110.3517 239° Southwest 472 543 38,000  Level Denver Center
Mon 06:21:27 PM 37.1347 -110.4917 239° Southwest 469 540 38,000  Level Denver Center
Mon 06:22:29 PM 37.0550 -110.6611 240° Southwest 470 541 38,000  Level Denver Center
Mon 06:23:31 PM 36.9875 -110.8028 239° Southwest 473 544 38,000 48 Level Denver Center
Mon 06:24:33 PM 36.9203 -110.9422 239° Southwest 470 541 38,100  Climbing Denver Center
Mon 06:25:35 PM 36.8522 -111.0836 239° Southwest 474 545 38,000 -48 Descending Denver Center
Mon 06:26:37 PM 36.7842 -111.2239 239° Southwest 473 544 38,000  Level Denver Center
Mon 06:27:39 PM 36.7167 -111.3625 239° Southwest 469 540 38,000  Level Denver Center
Mon 06:28:40 PM 36.6539 -111.5019 241° Southwest 466 536 38,000  Level Denver Center
Mon 06:29:42 PM 36.5825 -111.6728 243° Southwest 463 533 38,000  Level Denver Center
Mon 06:30:44 PM 36.5231 -111.8153 243° Southwest 463 533 38,000  Level Denver Center
Mon 06:31:46 PM 36.4631 -111.9572 242° Southwest 463 533 38,000  Level Denver Center
Mon 06:32:48 PM 36.4042 -112.0989 243° Southwest 462 532 38,000  Level Denver Center
Mon 06:33:49 PM 36.3431 -112.2403 242° Southwest 464 534 38,000  Level Denver Center
Mon 06:35:05 PM 36.2714 -112.4086 242° Southwest 460 529 38,000  Level Los Angeles Center
Mon 06:36:07 PM 36.1967 -112.5794 242° Southwest 466 536 38,000  Level Los Angeles Center
Mon 06:37:09 PM 36.1353 -112.7231 242° Southwest 470 541 38,000  Level Los Angeles Center
Mon 06:38:11 PM 36.0731 -112.8644 241° Southwest 469 540 38,000  Level Los Angeles Center
Mon 06:39:13 PM 36.0125 -113.0053 242° Southwest 466 536 38,000  Level Los Angeles Center
Mon 06:40:15 PM 35.9547 -113.1375 242° Southwest 468 539 38,000  Level Los Angeles Center
Mon 06:41:18 PM 35.8814 -113.3044 242° Southwest 467 537 38,000  Level Los Angeles Center
Mon 06:42:20 PM 35.8203 -113.4428 241° Southwest 465 535 38,000  Level Los Angeles Center
Mon 06:43:22 PM 35.7594 -113.5822 242° Southwest 469 540 38,000  Level Los Angeles Center
Mon 06:44:24 PM 35.6975 -113.7178 241° Southwest 462 532 38,000  Level Los Angeles Center
Mon 06:45:26 PM 35.6242 -113.8858 242° Southwest 467 537 38,000  Level Los Angeles Center
Mon 06:46:28 PM 35.5617 -114.0225 241° Southwest 464 534 38,000  Level Los Angeles Center
Mon 06:47:30 PM 35.4992 -114.1614 241° Southwest 467 537 38,000  Level Los Angeles Center
Mon 06:48:32 PM 35.4336 -114.3069 241° Southwest 464 534 38,000  Level Los Angeles Center
Mon 06:49:34 PM 35.3703 -114.4461 241° Southwest 467 537 38,000  Level Los Angeles Center
Mon 06:50:36 PM 35.3061 -114.5842 240° Southwest 465 535 38,000  Level Los Angeles Center
Mon 06:51:38 PM 35.2411 -114.7250 241° Southwest 471 542 38,000  Level Los Angeles Center
Mon 06:52:40 PM 35.1656 -114.8908 241° Southwest 467 537 38,000  Level Los Angeles Center
Mon 06:53:42 PM 35.1019 -115.0294 241° Southwest 466 536 38,000  Level Los Angeles Center
Mon 06:54:44 PM 35.0381 -115.1664 240° Southwest 465 535 38,000  Level Los Angeles Center
Mon 06:55:46 PM 34.9758 -115.2997 240° Southwest 466 536 38,000  Level Los Angeles Center
Mon 06:56:48 PM 34.9097 -115.4411 240° Southwest 465 535 38,000  Level Los Angeles Center
Mon 06:57:50 PM 34.8489 -115.5717 240° Southwest 462 532 38,000  Level Los Angeles Center
Mon 06:58:52 PM 34.7708 -115.7358 240° Southwest 465 535 38,000  Level Los Angeles Center
Mon 06:59:54 PM 34.7072 -115.8714 240° Southwest 463 533 38,000 -339 Level Los Angeles Center
Mon 07:00:56 PM 34.6422 -116.0069 240° Southwest 464 534 37,300 -1,548 Descending Los Angeles Center
Mon 07:01:58 PM 34.5767 -116.1439 240° Southwest 468 539 34,800 -2,419 Descending Los Angeles Center
Mon 07:03:00 PM 34.5106 -116.2822 240° Southwest 473 544 32,300 -2,419 Descending Los Angeles Center
Mon 07:04:02 PM 34.4447 -116.4172 239° Southwest 466 536 29,800 -2,323 Descending Los Angeles Center
Mon 07:05:04 PM 34.3797 -116.5500 239° Southwest 461 531 27,500 -1,355 Descending Los Angeles Center
Mon 07:06:06 PM 34.3081 -116.6978 240° Southwest 429 494 27,000 -1,210 Descending Los Angeles Center
Mon 07:07:08 PM 34.2508 -116.8164 240° Southwest 411 473 25,000 -2,565 Descending Los Angeles Center
Mon 07:08:10 PM 34.1908 -116.9367 239° Southwest 415 478 21,700 -2,903 Descending Los Angeles Center
Mon 07:09:12 PM 34.1344 -117.0539 240° Southwest 407 468 19,000 -1,604 Descending Los Angeles Center
Mon 07:09:51 PM 34.1000 -117.1333 242° Southwest 366 421 19,000 -1,152 Level Southern California TRACON
Mon 07:10:51 PM 34.0500 -117.2500 243° Southwest 362 417 17,100 -1,900 Descending Southern California TRACON
Mon 07:11:51 PM 34.0333 -117.3667 260° West 339 390 15,200 -1,810 Descending Southern California TRACON
Mon 07:12:57 PM 34.0333 -117.4833 270° West 331 381 13,300 -1,667 Descending Southern California TRACON
Mon 07:13:57 PM 34.0167 -117.6000 260° West 398 458 11,700 -1,350 Descending Southern California TRACON
Mon 07:14:57 PM 34.0000 -117.7000 259° West 273 314 10,600 -1,200 Descending Southern California TRACON
Mon 07:15:57 PM 34.0000 -117.7833 270° West 276 318 9,300 -1,200 Descending Southern California TRACON
Mon 07:16:52 PM 33.9833 -117.8667 256° West 268 308 8,300 -1,096 Descending Southern California TRACON
Mon 07:17:52 PM 33.9833 -117.9500 270° West 262 302 7,200 -1,333 Descending Southern California TRACON
Mon 07:18:58 PM 33.9667 -118.0500 259° West 249 287 5,500 -1,381 Descending Southern California TRACON
Mon 07:19:58 PM 33.9667 -118.1167 270° West 234 269 4,300 -1,125 Descending Southern California TRACON
Mon 07:20:34 PM 33.9600 -118.1631 260° West 238 274 3,700 -1,000 Descending Los Angeles Center

Login

Don't have an account? Register now (free) for customized features, flight alerts, and more!